createdAt,value
2019-03-31T00:00:34.162Z,99840.78
2019-03-31T00:03:02.761Z,99837.45
2019-03-31T00:05:31.336Z,99840.04
2019-03-31T00:07:59.934Z,99844.57
2019-03-31T00:10:28.488Z,99839.25
2019-03-31T00:12:57.139Z,99840.66
2019-03-31T00:15:25.737Z,99840.28
2019-03-31T00:17:54.403Z,99838.50
2019-03-31T00:20:23.024Z,99842.05
2019-03-31T00:22:51.592Z,99842.70
2019-03-31T00:25:20.229Z,99841.73
2019-03-31T00:27:48.801Z,99844.02
2019-03-31T00:30:18.504Z,99807.78
2019-03-31T00:32:47.130Z,99850.79
2019-03-31T00:35:15.718Z,99853.04
2019-03-31T00:37:44.378Z,99856.41
2019-03-31T00:40:13.612Z,99857.98
2019-03-31T00:42:42.221Z,99853.31
2019-03-31T00:45:10.831Z,99854.17
2019-03-31T00:47:39.728Z,99864.89
2019-03-31T00:50:08.373Z,99864.87
2019-03-31T00:52:36.983Z,99865.34
2019-03-31T00:55:05.652Z,99861.66
2019-03-31T00:57:34.272Z,99864.50
2019-03-31T01:00:05.800Z,99868.87
2019-03-31T01:02:34.414Z,99871.19
2019-03-31T01:05:05.006Z,99865.36
2019-03-31T01:07:33.642Z,99865.31
2019-03-31T01:10:03.096Z,99864.95
2019-03-31T01:12:32.145Z,99864.88
2019-03-31T01:15:01.903Z,99865.50
2019-03-31T01:17:30.603Z,99866.33
2019-03-31T01:19:59.207Z,99865.38
2019-03-31T01:22:27.847Z,99860.18
2019-03-31T01:24:56.454Z,99867.30
2019-03-31T01:27:25.703Z,99863.81
2019-03-31T01:29:54.319Z,99865.56
2019-03-31T01:32:22.903Z,99862.77
2019-03-31T01:34:51.499Z,99864.81
2019-03-31T01:37:20.405Z,99864.95
2019-03-31T01:39:48.963Z,99871.77
2019-03-31T01:42:17.583Z,99870.27
2019-03-31T01:44:46.245Z,99868.41
2019-03-31T01:47:34.023Z,99867.51
2019-03-31T01:50:11.480Z,99864.69
2019-03-31T01:52:40.026Z,99861.50
2019-03-31T01:55:09.192Z,99863.04
2019-03-31T01:57:37.751Z,99861.48
2019-03-31T02:00:16.844Z,99858.20
2019-03-31T02:02:45.480Z,99863.00
2019-03-31T02:05:14.097Z,99861.47
2019-03-31T02:07:42.725Z,99854.52
2019-03-31T02:10:11.472Z,99864.23
2019-03-31T02:12:40.736Z,99865.75
2019-03-31T02:15:09.451Z,99861.34
2019-03-31T02:17:38.076Z,99863.02
2019-03-31T02:20:06.967Z,99865.48
2019-03-31T02:22:35.564Z,99865.70
2019-03-31T02:25:04.324Z,99866.75
2019-03-31T02:27:32.926Z,99864.39
2019-03-31T02:30:01.598Z,99867.42
2019-03-31T02:32:30.245Z,99861.54
2019-03-31T02:34:58.861Z,99830.60
2019-03-31T02:37:27.526Z,99861.52
2019-03-31T02:39:56.200Z,99861.36
2019-03-31T02:42:24.978Z,99860.70
2019-03-31T02:44:53.551Z,99864.17
2019-03-31T02:47:22.146Z,99863.20
2019-03-31T02:49:50.842Z,99865.46
2019-03-31T02:52:19.477Z,99863.37
2019-03-31T02:54:48.118Z,99869.25
2019-03-31T02:57:18.937Z,99867.21
2019-03-31T02:59:49.701Z,99871.32
2019-03-31T03:02:19.980Z,99868.41
2019-03-31T03:04:51.199Z,99866.09
2019-03-31T03:07:20.728Z,99866.02
2019-03-31T03:09:51.071Z,99866.33
2019-03-31T03:12:21.469Z,99869.27
2019-03-31T03:14:50.397Z,99867.09
2019-03-31T03:17:19.038Z,99871.97
2019-03-31T03:19:47.928Z,99871.58
2019-03-31T03:22:16.564Z,99870.30
2019-03-31T03:24:45.194Z,99873.36
2019-03-31T03:27:13.768Z,99876.63
2019-03-31T03:29:42.400Z,99868.62
2019-03-31T03:32:11.109Z,99871.08
2019-03-31T03:34:39.771Z,99871.24
2019-03-31T03:37:08.384Z,99869.44
2019-03-31T03:39:37.118Z,99872.95
2019-03-31T03:42:07.783Z,99873.91
2019-03-31T03:44:36.419Z,99877.16
2019-03-31T03:47:05.261Z,99874.28
2019-03-31T03:49:33.809Z,99880.45
2019-03-31T03:52:02.386Z,99876.00
2019-03-31T03:54:30.974Z,99879.95
2019-03-31T03:56:59.601Z,99880.35
2019-03-31T03:59:28.346Z,99877.41
2019-03-31T04:01:56.958Z,99871.48
2019-03-31T04:04:25.528Z,99875.22
2019-03-31T04:06:54.187Z,99869.20
2019-03-31T04:09:28.109Z,99872.94
2019-03-31T04:11:56.753Z,99876.80
2019-03-31T04:14:25.340Z,99870.57
2019-03-31T04:16:53.978Z,99879.13
2019-03-31T04:19:23.767Z,99871.95
2019-03-31T04:21:52.386Z,99872.45
2019-03-31T04:24:20.957Z,99872.78
2019-03-31T04:26:49.564Z,99877.95
2019-03-31T04:29:23.219Z,99877.05
2019-03-31T04:31:51.846Z,99880.92
2019-03-31T04:34:20.452Z,99885.88
2019-03-31T04:36:49.090Z,99884.27
2019-03-31T04:39:17.684Z,99887.92
2019-03-31T04:41:46.269Z,99885.09
2019-03-31T04:44:14.886Z,99882.55
2019-03-31T04:46:43.595Z,99884.04
2019-03-31T04:49:12.216Z,99885.97
2019-03-31T04:51:40.793Z,99885.93
2019-03-31T04:54:09.324Z,99888.63
2019-03-31T04:56:37.900Z,99892.76
2019-03-31T04:59:06.766Z,99884.20
2019-03-31T05:01:35.387Z,99887.08
2019-03-31T05:04:05.394Z,99890.05
2019-03-31T05:06:34.166Z,99892.13
2019-03-31T05:09:04.631Z,99896.42
2019-03-31T05:11:33.371Z,99896.94
2019-03-31T05:14:02.285Z,99899.73
2019-03-31T05:16:30.893Z,99901.66
2019-03-31T05:18:59.512Z,99905.15
2019-03-31T05:21:28.140Z,99907.17
2019-03-31T05:23:56.735Z,99903.77
2019-03-31T05:26:25.348Z,99906.47
2019-03-31T05:28:54.001Z,99903.42
2019-03-31T05:31:22.557Z,99904.80
2019-03-31T05:33:51.131Z,99905.65
2019-03-31T05:36:19.721Z,99907.78
2019-03-31T05:38:48.333Z,99913.44
2019-03-31T05:41:16.914Z,99915.86
2019-03-31T05:43:45.543Z,99913.79
2019-03-31T05:46:14.239Z,99911.44
2019-03-31T05:48:42.854Z,99916.39
2019-03-31T05:51:11.448Z,99918.52
2019-03-31T05:53:40.067Z,99917.45
2019-03-31T05:56:08.661Z,99925.05
2019-03-31T05:58:37.284Z,99917.70
2019-03-31T06:01:06.017Z,99916.79
2019-03-31T06:03:34.650Z,99910.53
2019-03-31T06:06:03.233Z,99909.53
2019-03-31T06:08:31.821Z,99917.22
2019-03-31T06:11:00.479Z,99921.19
2019-03-31T06:13:29.067Z,99922.45
2019-03-31T06:15:57.705Z,99924.26
2019-03-31T06:18:26.628Z,99945.55
2019-03-31T06:20:55.210Z,99931.81
2019-03-31T06:23:23.853Z,99900.92
2019-03-31T06:25:52.435Z,99912.78
2019-03-31T06:28:21.145Z,99915.69
2019-03-31T06:30:49.933Z,99915.47
2019-03-31T06:33:18.587Z,99931.38
2019-03-31T06:35:47.174Z,99923.42
2019-03-31T06:38:15.788Z,99917.89
2019-03-31T06:40:47.702Z,99922.16
2019-03-31T06:43:16.355Z,99913.19
2019-03-31T06:45:44.948Z,99905.77
2019-03-31T06:48:13.542Z,99875.78
2019-03-31T06:50:42.139Z,99886.87
2019-03-31T06:53:10.768Z,99897.41
2019-03-31T06:55:39.358Z,99912.14
2019-03-31T06:58:07.974Z,99900.89
2019-03-31T07:00:36.646Z,99916.69
2019-03-31T07:03:05.298Z,99917.83
2019-03-31T07:05:33.894Z,99904.80
2019-03-31T07:08:02.839Z,99907.08
2019-03-31T07:10:31.703Z,99911.20
2019-03-31T07:13:00.334Z,99919.00
2019-03-31T07:15:28.907Z,99947.84
2019-03-31T07:17:57.507Z,99934.84
2019-03-31T07:20:31.177Z,99930.22
2019-03-31T07:22:59.775Z,99929.05
2019-03-31T07:25:30.384Z,99922.67
2019-03-31T07:27:58.953Z,99904.92
2019-03-31T07:30:27.626Z,99919.65
2019-03-31T07:32:56.248Z,99861.30
2019-03-31T07:35:24.844Z,99878.45
2019-03-31T07:37:53.401Z,99911.96
2019-03-31T07:40:24.196Z,99880.20
2019-03-31T07:42:53.212Z,99882.48
2019-03-31T07:45:21.840Z,99909.34
2019-03-31T07:47:50.533Z,99925.24
2019-03-31T07:50:19.197Z,99870.31
2019-03-31T07:52:47.819Z,99906.77
2019-03-31T07:55:16.650Z,99924.28
2019-03-31T07:57:45.253Z,99917.65
2019-03-31T08:00:17.376Z,99906.70
2019-03-31T08:02:45.966Z,99858.74
2019-03-31T08:05:14.865Z,99868.45
2019-03-31T08:07:43.757Z,99888.91
2019-03-31T08:10:13.229Z,99920.80
2019-03-31T08:12:41.869Z,99908.95
2019-03-31T08:15:10.903Z,99904.80
2019-03-31T08:17:42.691Z,99890.52
2019-03-31T08:20:11.653Z,99886.83
2019-03-31T08:22:40.382Z,99881.42
2019-03-31T08:25:09.523Z,99881.73
2019-03-31T08:27:38.182Z,99884.99
2019-03-31T08:30:08.909Z,99884.53
2019-03-31T08:32:37.511Z,99878.77
2019-03-31T08:35:07.759Z,99881.01
2019-03-31T08:37:36.454Z,99879.59
2019-03-31T08:40:15.426Z,99884.25
2019-03-31T08:42:44.066Z,99877.59
2019-03-31T08:45:15.062Z,99873.63
2019-03-31T08:47:43.692Z,99866.09
2019-03-31T08:50:12.980Z,99868.85
2019-03-31T08:52:41.663Z,99868.02
2019-03-31T08:55:10.990Z,99869.41
2019-03-31T08:57:39.654Z,99870.59
2019-03-31T09:00:15.329Z,99842.62
2019-03-31T09:02:44.022Z,99841.75
2019-03-31T09:05:13.035Z,99846.30
2019-03-31T09:07:42.126Z,99877.19
2019-03-31T09:10:11.105Z,99862.42
2019-03-31T09:12:39.740Z,99862.14
2019-03-31T09:15:09.534Z,99859.02
2019-03-31T09:17:38.291Z,99858.11
2019-03-31T09:20:07.415Z,99847.76
2019-03-31T09:22:35.999Z,99841.55
2019-03-31T09:25:04.762Z,99843.46
2019-03-31T09:27:33.361Z,99837.57
2019-03-31T09:30:02.069Z,99834.95
2019-03-31T09:32:30.753Z,99833.41
2019-03-31T09:34:59.354Z,99837.92
2019-03-31T09:37:27.955Z,99836.05
2019-03-31T09:39:56.592Z,99837.64
2019-03-31T09:42:25.259Z,99831.33
2019-03-31T09:44:53.917Z,99832.78
2019-03-31T09:47:22.572Z,99828.44
2019-03-31T09:49:51.200Z,99823.92
2019-03-31T09:52:19.875Z,99824.31
2019-03-31T09:54:48.491Z,99811.94
2019-03-31T09:57:17.066Z,99808.53
2019-03-31T09:59:45.673Z,99809.11
2019-03-31T10:02:14.282Z,99810.05
2019-03-31T10:04:42.882Z,99806.28
2019-03-31T10:07:11.480Z,99807.02
2019-03-31T10:09:40.454Z,99808.63
2019-03-31T10:12:09.063Z,99812.20
2019-03-31T10:14:37.687Z,99810.15
2019-03-31T10:17:06.264Z,99808.20
2019-03-31T10:19:34.906Z,99808.55
2019-03-31T10:22:03.510Z,99806.56
2019-03-31T10:24:32.126Z,99816.47
2019-03-31T10:27:00.860Z,99746.23
2019-03-31T10:29:29.470Z,99802.83
2019-03-31T10:31:58.095Z,99789.76
2019-03-31T10:34:26.871Z,99784.24
2019-03-31T10:36:55.483Z,99788.34
2019-03-31T10:39:24.069Z,99783.37
2019-03-31T10:41:52.693Z,99782.82
2019-03-31T10:44:21.286Z,99787.83
2019-03-31T10:46:49.983Z,99786.66
2019-03-31T10:49:18.794Z,99762.34
2019-03-31T10:51:47.445Z,99768.41
2019-03-31T10:54:16.023Z,99773.84
2019-03-31T10:56:44.907Z,99760.91
2019-03-31T10:59:13.507Z,99758.11
2019-03-31T11:01:42.152Z,99752.52
2019-03-31T11:04:10.752Z,99755.97
2019-03-31T11:06:39.348Z,99763.59
2019-03-31T11:09:08.546Z,99758.45
2019-03-31T11:11:37.164Z,99747.33
2019-03-31T11:14:05.801Z,99764.09
2019-03-31T11:16:34.816Z,99759.58
2019-03-31T11:19:03.796Z,99756.75
2019-03-31T11:21:42.616Z,99755.10
2019-03-31T11:24:11.765Z,99770.05
2019-03-31T11:26:41.068Z,99773.25
2019-03-31T11:29:13.167Z,99780.59
2019-03-31T11:31:42.288Z,99779.86
2019-03-31T11:34:10.954Z,99779.62
2019-03-31T11:36:39.556Z,99772.29
2019-03-31T11:39:08.354Z,99782.08
2019-03-31T11:41:36.971Z,99786.65
2019-03-31T11:44:05.594Z,99771.08
2019-03-31T11:46:34.168Z,99768.98
2019-03-31T11:49:02.932Z,99778.84
2019-03-31T11:51:31.588Z,99773.77
2019-03-31T11:54:00.241Z,99769.92
2019-03-31T11:56:28.918Z,99756.17
2019-03-31T11:58:57.714Z,99763.81
2019-03-31T12:01:26.468Z,99759.61
2019-03-31T12:03:55.057Z,99758.22
2019-03-31T12:06:23.661Z,99756.86
2019-03-31T12:08:52.450Z,99753.58
2019-03-31T12:11:21.171Z,99749.08
2019-03-31T12:13:49.795Z,99755.86
2019-03-31T12:16:18.432Z,99758.34
2019-03-31T12:18:47.342Z,99749.34
2019-03-31T12:21:15.949Z,99758.44
2019-03-31T12:23:44.578Z,99752.83
2019-03-31T12:26:13.155Z,99752.31
2019-03-31T12:28:41.987Z,99754.50
2019-03-31T12:31:10.625Z,99753.12
2019-03-31T12:33:39.308Z,99756.33
2019-03-31T12:36:08.502Z,99760.57
2019-03-31T12:38:37.127Z,99759.59
2019-03-31T12:41:05.757Z,99760.75
2019-03-31T12:43:34.335Z,99756.81
2019-03-31T12:46:03.157Z,99757.28
2019-03-31T12:48:31.920Z,99744.42
2019-03-31T12:51:00.647Z,99729.48
2019-03-31T12:53:29.303Z,99734.08
2019-03-31T12:56:00.445Z,99728.63
2019-03-31T12:58:28.554Z,99727.22
2019-03-31T13:00:57.302Z,99723.12
2019-03-31T13:03:25.931Z,99735.56
2019-03-31T13:05:54.584Z,99723.62
2019-03-31T13:08:23.227Z,99726.42
2019-03-31T13:10:51.999Z,99727.53
2019-03-31T13:13:20.696Z,99729.80
2019-03-31T13:15:49.373Z,99726.05
2019-03-31T13:18:18.035Z,99724.89
2019-03-31T13:20:46.783Z,99735.40
2019-03-31T13:23:15.393Z,99728.56
2019-03-31T13:25:43.987Z,99731.51
2019-03-31T13:28:12.599Z,99727.25
2019-03-31T13:30:41.196Z,99719.48
2019-03-31T13:33:09.805Z,99703.84
2019-03-31T13:35:38.428Z,99713.84
2019-03-31T13:38:11.269Z,99712.20
2019-03-31T13:40:37.519Z,99707.20
2019-03-31T13:43:06.191Z,99704.28
2019-03-31T13:45:34.791Z,99701.77
2019-03-31T13:48:03.459Z,99698.35
2019-03-31T13:50:32.080Z,99703.44
2019-03-31T13:53:00.714Z,99702.17
2019-03-31T13:55:29.315Z,99692.62
2019-03-31T13:57:58.452Z,99686.60
2019-03-31T14:00:39.543Z,99679.00
2019-03-31T14:03:08.371Z,99692.78
2019-03-31T14:05:37.031Z,99693.48
2019-03-31T14:08:06.104Z,99694.23
2019-03-31T14:10:35.031Z,99688.85
2019-03-31T14:13:03.915Z,99684.18
2019-03-31T14:15:32.820Z,99682.39
2019-03-31T14:18:01.455Z,99683.05
2019-03-31T14:20:30.352Z,99678.28
2019-03-31T14:22:58.948Z,99679.84
2019-03-31T14:25:27.578Z,99674.59
2019-03-31T14:27:56.247Z,99674.68
2019-03-31T14:30:25.112Z,99669.67
2019-03-31T14:32:53.738Z,99666.26
2019-03-31T14:35:22.320Z,99672.47
2019-03-31T14:37:50.923Z,99665.13
2019-03-31T14:40:24.737Z,99666.59
2019-03-31T14:42:53.336Z,99666.98
2019-03-31T14:45:33.334Z,99659.64
2019-03-31T14:48:02.375Z,99662.27
2019-03-31T14:50:36.752Z,99661.88
2019-03-31T14:53:05.577Z,99664.80
2019-03-31T14:55:34.199Z,99658.28
2019-03-31T14:58:02.786Z,99663.30
2019-03-31T15:00:31.411Z,99670.42
2019-03-31T15:03:00.011Z,99668.52
2019-03-31T15:05:28.687Z,99670.17
2019-03-31T15:07:58.636Z,99670.38
2019-03-31T15:10:27.676Z,99672.72
2019-03-31T15:12:56.291Z,99675.73
2019-03-31T15:15:24.875Z,99672.49
2019-03-31T15:17:53.436Z,99669.34
2019-03-31T15:20:22.499Z,99674.52
2019-03-31T15:22:51.537Z,99677.82
2019-03-31T15:25:20.292Z,99675.09
2019-03-31T15:27:48.857Z,99682.16
2019-03-31T15:30:22.610Z,99682.98
2019-03-31T15:32:51.185Z,99686.14
2019-03-31T15:35:19.844Z,99684.02
2019-03-31T15:37:48.429Z,99686.34
2019-03-31T15:40:17.379Z,99692.09
2019-03-31T15:42:46.013Z,99695.53
2019-03-31T15:45:14.585Z,99700.48
2019-03-31T15:47:43.221Z,99701.33
2019-03-31T15:50:12.878Z,99704.50
2019-03-31T15:52:41.487Z,99702.31
2019-03-31T15:55:10.191Z,99702.13
2019-03-31T15:57:38.751Z,99701.09
2019-03-31T16:00:08.686Z,99705.53
2019-03-31T16:02:37.237Z,99709.68
2019-03-31T16:05:06.942Z,99712.42
2019-03-31T16:07:35.504Z,99715.42
2019-03-31T16:10:04.101Z,99719.23
2019-03-31T16:12:31.880Z,99716.78
2019-03-31T16:14:59.725Z,99713.83
2019-03-31T16:17:27.540Z,99721.02
2019-03-31T16:19:55.682Z,99723.91
2019-03-31T16:22:23.491Z,99726.66
2019-03-31T16:24:53.864Z,99725.91
2019-03-31T16:27:21.632Z,99725.11
2019-03-31T16:29:49.507Z,99723.86
2019-03-31T16:32:17.282Z,99730.74
2019-03-31T16:34:45.045Z,99737.03
2019-03-31T16:37:12.836Z,99739.80
2019-03-31T16:39:41.096Z,99744.73
2019-03-31T16:42:10.725Z,99741.70
2019-03-31T16:44:38.518Z,99740.91
2019-03-31T16:47:06.269Z,99739.34
2019-03-31T16:49:34.010Z,99744.90
2019-03-31T16:52:01.834Z,99747.59
2019-03-31T16:54:29.623Z,99745.45
2019-03-31T16:56:57.451Z,99689.41
2019-03-31T16:59:25.253Z,99746.26
2019-03-31T17:01:53.052Z,99758.63
2019-03-31T17:04:20.865Z,99764.84
2019-03-31T17:06:48.618Z,99772.50
2019-03-31T17:09:16.533Z,99788.69
2019-03-31T17:11:44.301Z,99785.77
2019-03-31T17:14:12.104Z,99787.41
2019-03-31T17:16:39.927Z,99792.70
2019-03-31T17:19:07.894Z,99792.38
2019-03-31T17:21:35.667Z,99797.04
2019-03-31T17:24:03.472Z,99797.33
2019-03-31T17:26:31.268Z,99800.06
2019-03-31T17:28:59.149Z,99801.25
2019-03-31T17:31:26.920Z,99801.31
2019-03-31T17:34:01.308Z,99805.56
2019-03-31T17:36:31.912Z,99811.73
2019-03-31T17:39:04.542Z,99818.09
2019-03-31T17:41:32.607Z,99828.08
2019-03-31T17:44:00.808Z,99828.58
2019-03-31T17:46:28.793Z,99839.01
2019-03-31T17:48:56.598Z,99840.16
2019-03-31T17:51:24.600Z,99847.92
2019-03-31T17:53:52.405Z,99846.11
2019-03-31T17:56:20.269Z,99843.73
2019-03-31T17:58:48.097Z,99852.97
2019-03-31T18:01:16.120Z,99855.69
2019-03-31T18:03:43.989Z,99863.77
2019-03-31T18:06:11.985Z,99860.91
2019-03-31T18:08:42.451Z,99869.77
2019-03-31T18:11:09.683Z,99865.22
2019-03-31T18:13:37.547Z,99877.55
2019-03-31T18:16:05.740Z,99884.91
2019-03-31T18:18:33.545Z,99883.82
2019-03-31T18:21:01.370Z,99892.81
2019-03-31T18:23:29.190Z,99892.41
2019-03-31T18:25:57.054Z,99899.88
2019-03-31T18:28:25.043Z,99905.23
2019-03-31T18:30:53.004Z,99913.20
2019-03-31T18:33:21.227Z,99915.42
2019-03-31T18:35:49.576Z,99925.36
2019-03-31T18:38:17.921Z,99928.25
2019-03-31T18:40:46.667Z,99931.59
2019-03-31T18:43:14.685Z,99940.19
2019-03-31T18:45:42.673Z,99931.83
2019-03-31T18:48:10.503Z,99935.19
2019-03-31T18:50:38.525Z,99942.15
2019-03-31T18:53:07.993Z,99949.44
2019-03-31T18:55:58.246Z,99952.12
2019-03-31T18:58:45.654Z,99948.54
2019-03-31T19:01:35.838Z,99949.58
2019-03-31T19:04:23.271Z,99954.06
2019-03-31T19:07:13.979Z,99956.89
2019-03-31T19:09:58.521Z,99958.72
2019-03-31T19:12:48.700Z,99965.97
2019-03-31T19:15:36.187Z,99967.98
2019-03-31T19:18:26.737Z,99973.80
2019-03-31T19:21:11.768Z,99978.09
2019-03-31T19:23:59.611Z,99980.92
2019-03-31T19:26:48.556Z,99986.22
2019-03-31T19:29:25.830Z,99982.77
2019-03-31T19:32:29.193Z,99988.69
2019-03-31T19:35:16.718Z,99993.30
2019-03-31T19:38:13.888Z,99996.44
2019-03-31T19:41:04.220Z,100001.71
2019-03-31T19:43:40.967Z,100006.50
2019-03-31T19:46:24.401Z,100010.61
2019-03-31T19:49:14.692Z,100010.61
2019-03-31T19:52:02.143Z,100015.70
2019-03-31T19:54:40.453Z,100019.28
2019-03-31T19:57:26.275Z,100016.14
2019-03-31T20:00:32.109Z,100016.43
2019-03-31T20:06:06.540Z,100020.99
2019-03-31T20:08:45.709Z,100024.92
2019-03-31T20:11:31.702Z,100029.97
2019-03-31T20:14:19.089Z,100033.06
2019-03-31T20:16:54.789Z,100036.83
2019-03-31T20:19:48.225Z,100037.95
2019-03-31T20:22:34.763Z,100038.08
2019-03-31T20:25:25.119Z,100039.38
2019-03-31T20:28:03.899Z,100044.45
2019-03-31T20:30:47.364Z,100042.92
2019-03-31T20:33:40.356Z,100054.41
2019-03-31T20:36:27.765Z,100056.35
2019-03-31T20:39:17.919Z,100057.96
2019-03-31T20:41:51.052Z,100056.58
2019-03-31T20:44:18.918Z,100066.25
2019-03-31T20:46:46.977Z,100064.92
2019-03-31T20:49:14.830Z,100065.88
2019-03-31T20:51:42.633Z,100063.39
2019-03-31T20:54:10.435Z,100064.21
2019-03-31T20:56:38.280Z,100067.79
2019-03-31T20:59:06.178Z,100072.39
2019-03-31T21:01:33.981Z,100074.48
2019-03-31T21:04:01.802Z,100073.82
2019-03-31T21:06:29.583Z,100078.25
2019-03-31T21:08:57.571Z,100075.09
2019-03-31T21:11:25.375Z,100079.30
2019-03-31T21:13:56.645Z,100083.73
2019-03-31T21:16:22.838Z,100080.87
2019-03-31T21:18:50.625Z,100083.81
2019-03-31T21:21:18.407Z,100086.77
2019-03-31T21:23:46.251Z,100090.36
2019-03-31T21:26:14.051Z,100093.44
2019-03-31T21:28:41.843Z,100093.24
2019-03-31T21:31:09.622Z,100089.77
2019-03-31T21:33:37.394Z,100086.25
2019-03-31T21:36:05.214Z,100062.75
2019-03-31T21:38:33.037Z,100096.20
2019-03-31T21:41:01.689Z,100095.34
2019-03-31T21:43:29.446Z,100093.05
2019-03-31T21:45:58.236Z,100098.97
2019-03-31T21:48:26.039Z,100096.99
2019-03-31T21:50:53.876Z,100099.98
2019-03-31T21:53:21.657Z,100106.35
2019-03-31T21:55:49.505Z,100102.25
2019-03-31T21:58:17.218Z,100103.88
2019-03-31T22:00:52.140Z,100100.25
2019-03-31T22:03:19.914Z,100104.27
2019-03-31T22:05:47.743Z,100105.13
2019-03-31T22:08:15.514Z,100107.30
2019-03-31T22:10:43.354Z,100109.80
2019-03-31T22:13:11.152Z,100109.20
2019-03-31T22:15:39.024Z,100104.66
2019-03-31T22:18:06.746Z,100104.23
2019-03-31T22:20:34.526Z,100112.51
2019-03-31T22:23:02.356Z,100108.95
2019-03-31T22:25:30.153Z,100105.78
2019-03-31T22:27:58.257Z,100116.58
2019-03-31T22:30:26.094Z,100104.05
2019-03-31T22:32:53.871Z,100104.16
2019-03-31T22:35:21.719Z,100109.03
2019-03-31T22:37:49.507Z,100110.92
2019-03-31T22:40:17.504Z,100106.73
2019-03-31T22:42:47.458Z,100108.83
2019-03-31T22:45:15.274Z,100113.55
2019-03-31T22:47:43.068Z,100104.02
2019-03-31T22:50:11.157Z,100101.84
2019-03-31T22:52:38.950Z,100102.63
2019-03-31T22:55:06.799Z,100101.59
2019-03-31T22:57:34.613Z,100101.87
2019-03-31T23:00:02.540Z,100097.27
2019-03-31T23:02:30.382Z,100101.63
2019-03-31T23:04:58.104Z,100098.27
2019-03-31T23:07:25.862Z,100094.58
2019-03-31T23:09:54.997Z,100096.19
2019-03-31T23:12:23.090Z,100097.45
2019-03-31T23:14:50.926Z,100099.62
2019-03-31T23:17:18.864Z,100101.22
2019-03-31T23:19:46.714Z,100104.78
2019-03-31T23:22:14.560Z,100101.90
2019-03-31T23:24:42.342Z,100100.34
2019-03-31T23:27:10.073Z,100102.81
2019-03-31T23:29:37.963Z,100100.19
2019-03-31T23:32:05.743Z,100100.59
2019-03-31T23:34:33.466Z,100099.11
2019-03-31T23:37:01.214Z,100094.33
2019-03-31T23:39:29.046Z,100097.48
2019-03-31T23:41:56.842Z,100100.23
2019-03-31T23:44:44.052Z,100096.72
2019-03-31T23:47:11.809Z,100104.05
2019-03-31T23:49:39.609Z,100101.95
2019-03-31T23:52:07.356Z,100103.61
2019-03-31T23:54:35.088Z,100099.52
2019-03-31T23:57:02.879Z,100099.52
2019-03-31T23:59:30.630Z,100097.36
